Time;durP1;ratioP1;P1;durP2;ratioP2;P2;SDS_P1;SDS_P2;PMS_P1;PMS_P2;Temp;Humidity;BMP_temperature;BMP_pressure;BME280_temperature;BME280_humidity;BME280_pressure;Samples;Min_cycle;Max_cycle;Signal;HPM_P1;HPM_P2
2022/06/15 00:00:20;;;;;;;;;;;12.10;99.90;;;;;;5056264;28;19917;-77
2022/06/15 00:02:52;;;;;;;;;;;11.80;99.90;;;;;;5012945;28;20016;-78
2022/06/15 00:05:17;;;;;;;;;;;11.90;99.90;;;;;;5028866;28;20007;-78
2022/06/15 00:07:43;;;;;;;;;;;11.80;99.90;;;;;;5013888;28;19917;-77
2022/06/15 00:10:09;;;;;;;;;;;11.70;99.90;;;;;;5024642;28;19967;-77
2022/06/15 00:12:35;;;;;;;;;;;11.70;99.90;;;;;;5011935;28;19929;-79
2022/06/15 00:15:01;;;;;;;;;;;11.60;99.90;;;;;;5010966;28;20011;-79
2022/06/15 00:17:26;;;;;;;;;;;11.50;99.90;;;;;;5010913;28;20004;-80
2022/06/15 00:19:52;;;;;;;;;;;11.50;99.90;;;;;;5040849;28;19917;-78
2022/06/15 00:22:17;;;;;;;;;;;11.40;99.90;;;;;;5031269;28;19970;-78
2022/06/15 00:24:43;;;;;;;;;;;11.40;99.90;;;;;;5044568;28;20350;-80
2022/06/15 00:27:09;;;;;;;;;;;11.30;99.90;;;;;;5000503;28;19921;-78
2022/06/15 00:29:37;;;;;;;;;;;11.20;99.90;;;;;;5063709;28;20285;-77
2022/06/15 00:32:04;;;;;;;;;;;11.20;99.90;;;;;;5012199;28;19921;-76
2022/06/15 00:34:30;;;;;;;;;;;11.10;99.90;;;;;;4976862;28;19917;-77
2022/06/15 00:37:05;;;;;;;;;;;11.10;99.90;;;;;;5015372;28;20274;-80
2022/06/15 00:39:32;;;;;;;;;;;11.10;99.90;;;;;;5020552;28;19917;-79
2022/06/15 00:41:58;;;;;;;;;;;11.00;99.90;;;;;;5027115;28;20313;-79
2022/06/15 00:44:24;;;;;;;;;;;11.00;99.90;;;;;;5037661;28;19917;-79
2022/06/15 00:46:51;;;;;;;;;;;10.90;99.90;;;;;;5059903;28;19917;-79
2022/06/15 00:49:19;;;;;;;;;;;10.90;99.90;;;;;;5016372;28;20306;-78
2022/06/15 00:51:46;;;;;;;;;;;10.80;99.90;;;;;;5042636;28;19925;-78
2022/06/15 00:54:13;;;;;;;;;;;10.90;99.90;;;;;;5013328;28;20008;-77
2022/06/15 00:56:39;;;;;;;;;;;10.80;99.90;;;;;;5027672;28;19918;-79
2022/06/15 00:59:08;;;;;;;;;;;10.70;99.90;;;;;;5026862;28;19921;-78
2022/06/15 01:01:34;;;;;;;;;;;10.70;99.90;;;;;;5016392;28;20003;-79
2022/06/15 01:04:01;;;;;;;;;;;10.70;99.90;;;;;;5056445;28;20012;-80
2022/06/15 01:06:26;;;;;;;;;;;10.70;99.90;;;;;;5014006;28;19928;-78
2022/06/15 01:08:58;;;;;;;;;;;10.70;99.90;;;;;;5049799;28;19917;-77
2022/06/15 01:11:42;;;;;;;;;;;10.60;99.90;;;;;;5032418;28;19920;-79
2022/06/15 01:14:11;;;;;;;;;;;10.60;99.90;;;;;;5017106;28;19928;-79
2022/06/15 01:16:37;;;;;;;;;;;10.50;99.90;;;;;;5019914;28;19960;-79
2022/06/15 01:19:18;;;;;;;;;;;10.60;99.90;;;;;;5049820;28;19923;-79
2022/06/15 01:21:51;;;;;;;;;;;10.50;99.90;;;;;;5028926;28;19924;-78
2022/06/15 01:24:23;;;;;;;;;;;10.50;99.90;;;;;;5025471;28;19921;-80
2022/06/15 01:26:52;;;;;;;;;;;10.50;99.90;;;;;;5048138;28;20004;-78
2022/06/15 01:29:17;;;;;;;;;;;10.40;99.90;;;;;;5056916;28;19921;-76
2022/06/15 01:31:46;;;;;;;;;;;10.40;99.90;;;;;;5027695;28;19943;-78
2022/06/15 01:34:14;;;;;;;;;;;10.40;99.90;;;;;;5014587;28;19917;-78
2022/06/15 01:36:40;;;;;;;;;;;10.40;99.90;;;;;;5026718;28;19921;-79
2022/06/15 01:39:18;;;;;;;;;;;10.30;99.90;;;;;;5013720;28;19917;-77
2022/06/15 01:42:10;;;;;;;;;;;10.30;99.90;;;;;;4999084;28;19972;-77
2022/06/15 01:44:38;;;;;;;;;;;10.30;99.90;;;;;;4981056;28;19917;-78
2022/06/15 01:47:06;;;;;;;;;;;10.20;99.90;;;;;;5047324;28;20263;-79
2022/06/15 01:50:01;;;;;;;;;;;10.20;99.90;;;;;;5013405;28;19923;-77
2022/06/15 01:52:32;;;;;;;;;;;10.20;99.90;;;;;;4988245;28;19922;-79
2022/06/15 01:55:25;;;;;;;;;;;10.20;99.90;;;;;;4976342;28;20397;-78
2022/06/15 01:57:53;;;;;;;;;;;10.10;99.90;;;;;;5030496;28;19917;-78
2022/06/15 02:00:19;;;;;;;;;;;10.10;99.90;;;;;;5013517;28;19928;-78
2022/06/15 02:02:59;;;;;;;;;;;10.10;99.90;;;;;;5009570;28;19939;-79
2022/06/15 02:05:31;;;;;;;;;;;10.00;99.90;;;;;;5049425;28;19948;-79
2022/06/15 02:08:15;;;;;;;;;;;10.00;99.90;;;;;;5019077;28;19917;-78
2022/06/15 02:10:56;;;;;;;;;;;9.90;99.90;;;;;;5021844;28;19917;-79
2022/06/15 02:13:26;;;;;;;;;;;9.90;99.90;;;;;;5015358;28;19928;-77
2022/06/15 02:15:54;;;;;;;;;;;9.80;99.90;;;;;;5013891;28;20240;-78
2022/06/15 02:18:24;;;;;;;;;;;9.80;99.90;;;;;;5029169;28;20325;-77
2022/06/15 02:21:03;;;;;;;;;;;9.80;99.90;;;;;;5049269;28;20525;-78
2022/06/15 02:23:30;;;;;;;;;;;9.80;99.90;;;;;;5043840;28;19928;-78
2022/06/15 02:25:56;;;;;;;;;;;9.80;99.90;;;;;;5021671;28;20330;-79
2022/06/15 02:28:28;;;;;;;;;;;9.90;99.90;;;;;;5013939;28;19918;-79
2022/06/15 02:30:54;;;;;;;;;;;9.70;99.90;;;;;;5023888;28;19990;-79
2022/06/15 02:33:21;;;;;;;;;;;9.70;99.90;;;;;;4997213;28;19917;-78
2022/06/15 02:35:52;;;;;;;;;;;9.70;99.90;;;;;;5042991;28;19979;-78
2022/06/15 02:38:18;;;;;;;;;;;9.60;99.90;;;;;;5030061;28;20016;-79
2022/06/15 02:40:44;;;;;;;;;;;9.70;99.90;;;;;;5012242;28;19918;-77
2022/06/15 02:43:10;;;;;;;;;;;9.60;99.90;;;;;;4979664;28;19924;-79
2022/06/15 02:45:41;;;;;;;;;;;9.60;99.90;;;;;;5009629;28;19925;-78
2022/06/15 02:48:10;;;;;;;;;;;9.70;99.90;;;;;;4996370;28;19924;-78
2022/06/15 02:50:39;;;;;;;;;;;9.80;99.90;;;;;;5019307;28;20363;-78
2022/06/15 02:53:07;;;;;;;;;;;9.80;99.90;;;;;;5029177;28;19925;-78
2022/06/15 02:55:34;;;;;;;;;;;9.90;99.90;;;;;;5028745;28;19983;-77
2022/06/15 02:58:02;;;;;;;;;;;9.90;99.90;;;;;;5028789;28;19928;-78
2022/06/15 03:00:28;;;;;;;;;;;10.00;99.90;;;;;;5019321;28;20024;-77
2022/06/15 03:02:54;;;;;;;;;;;10.00;99.90;;;;;;5033460;28;19918;-78
2022/06/15 03:05:19;;;;;;;;;;;10.10;99.90;;;;;;5025396;28;20282;-80
2022/06/15 03:07:45;;;;;;;;;;;10.20;99.90;;;;;;5027364;28;19968;-77
2022/06/15 03:10:11;;;;;;;;;;;10.20;99.90;;;;;;5012900;28;19923;-78
2022/06/15 03:12:36;;;;;;;;;;;10.30;99.90;;;;;;5046511;28;20043;-77
2022/06/15 03:15:11;;;;;;;;;;;10.30;99.90;;;;;;5047260;28;19924;-78
2022/06/15 03:17:36;;;;;;;;;;;10.40;99.90;;;;;;5047025;28;19917;-78
2022/06/15 03:20:02;;;;;;;;;;;10.40;99.90;;;;;;5016605;28;19971;-80
2022/06/15 03:22:28;;;;;;;;;;;10.40;99.90;;;;;;5053443;28;20298;-79
2022/06/15 03:24:53;;;;;;;;;;;10.50;99.90;;;;;;4985567;28;19921;-78
2022/06/15 03:27:20;;;;;;;;;;;10.50;99.90;;;;;;5030522;28;20385;-77
2022/06/15 03:29:50;;;;;;;;;;;10.60;99.90;;;;;;5031224;28;19960;-77
2022/06/15 03:32:16;;;;;;;;;;;10.70;99.90;;;;;;5028712;28;19953;-78
2022/06/15 03:34:41;;;;;;;;;;;10.70;99.90;;;;;;4978044;28;20000;-79
2022/06/15 03:37:07;;;;;;;;;;;10.80;99.90;;;;;;5030748;28;19975;-78
2022/06/15 03:39:34;;;;;;;;;;;10.80;99.90;;;;;;5036083;28;20012;-78
2022/06/15 03:42:07;;;;;;;;;;;10.90;99.90;;;;;;5025717;28;19918;-78
2022/06/15 03:44:34;;;;;;;;;;;10.90;99.90;;;;;;4994658;28;19918;-79
2022/06/15 03:47:00;;;;;;;;;;;11.00;99.90;;;;;;5026400;28;19929;-77
2022/06/15 03:49:25;;;;;;;;;;;11.00;99.90;;;;;;5015102;28;19932;-79
2022/06/15 03:51:51;;;;;;;;;;;11.10;99.90;;;;;;5011225;28;20297;-78
2022/06/15 03:54:16;;;;;;;;;;;11.10;99.90;;;;;;4997464;28;19922;-78
2022/06/15 03:56:46;;;;;;;;;;;11.20;99.90;;;;;;5014487;28;19917;-79
2022/06/15 03:59:13;;;;;;;;;;;11.20;99.90;;;;;;4994785;28;19917;-78
2022/06/15 04:01:39;;;;;;;;;;;11.30;99.90;;;;;;4994881;28;20263;-78
2022/06/15 04:04:04;;;;;;;;;;;11.40;99.90;;;;;;5043624;28;19917;-78
2022/06/15 04:06:30;;;;;;;;;;;11.50;99.90;;;;;;5011129;28;19917;-77
2022/06/15 04:08:55;;;;;;;;;;;11.60;99.90;;;;;;4994853;28;19960;-79
2022/06/15 04:14:11;;;;;;;;;;;11.70;99.90;;;;;;5011407;28;19917;-77
2022/06/15 04:16:37;;;;;;;;;;;11.80;99.90;;;;;;5045073;28;19917;-77
2022/06/15 04:19:04;;;;;;;;;;;11.80;99.90;;;;;;5011073;28;19925;-78
2022/06/15 04:21:30;;;;;;;;;;;12.00;99.90;;;;;;5011140;28;19924;-78
2022/06/15 04:24:00;;;;;;;;;;;12.00;99.90;;;;;;5011931;28;19941;-77
2022/06/15 04:26:28;;;;;;;;;;;12.10;99.90;;;;;;5010517;28;19937;-78
2022/06/15 04:28:54;;;;;;;;;;;12.10;99.90;;;;;;5011515;28;19917;-78
2022/06/15 04:31:20;;;;;;;;;;;12.20;99.90;;;;;;5015151;28;19975;-79
2022/06/15 04:33:45;;;;;;;;;;;12.20;99.90;;;;;;4997604;28;19917;-79
2022/06/15 04:36:13;;;;;;;;;;;12.40;99.90;;;;;;5014975;28;19960;-77
2022/06/15 04:38:39;;;;;;;;;;;12.50;99.90;;;;;;5048393;28;20323;-78
2022/06/15 04:41:04;;;;;;;;;;;12.50;99.90;;;;;;5048340;28;19960;-78
2022/06/15 04:43:30;;;;;;;;;;;12.70;99.90;;;;;;5015642;28;19924;-79
2022/06/15 04:45:56;;;;;;;;;;;12.60;99.90;;;;;;5041206;28;19986;-79
2022/06/15 04:48:21;;;;;;;;;;;12.60;99.90;;;;;;4997929;28;19917;-79
2022/06/15 04:50:47;;;;;;;;;;;12.60;99.90;;;;;;5014162;28;19917;-80
2022/06/15 04:53:13;;;;;;;;;;;12.70;99.90;;;;;;5016144;28;19921;-78
2022/06/15 04:55:38;;;;;;;;;;;12.80;99.90;;;;;;5033200;28;20274;-78
2022/06/15 04:58:07;;;;;;;;;;;12.80;99.90;;;;;;5053392;28;19938;-79
2022/06/15 05:00:36;;;;;;;;;;;12.90;99.90;;;;;;5037589;28;19923;-79
2022/06/15 05:03:02;;;;;;;;;;;13.00;99.90;;;;;;5035359;28;19921;-80
2022/06/15 05:05:27;;;;;;;;;;;13.10;99.90;;;;;;5009103;28;20130;-78
2022/06/15 05:07:53;;;;;;;;;;;13.10;99.90;;;;;;5023820;28;19940;-79
2022/06/15 05:10:21;;;;;;;;;;;13.20;99.90;;;;;;5031267;28;20388;-78
2022/06/15 05:12:47;;;;;;;;;;;13.30;99.90;;;;;;5028003;28;19927;-80
2022/06/15 05:15:13;;;;;;;;;;;13.40;99.90;;;;;;5021601;28;20306;-78
2022/06/15 05:17:40;;;;;;;;;;;13.40;99.90;;;;;;5037283;28;19963;-79
2022/06/15 05:20:07;;;;;;;;;;;13.50;99.90;;;;;;5038271;28;19949;-77
2022/06/15 05:22:32;;;;;;;;;;;13.50;99.90;;;;;;5042616;28;19917;-79
2022/06/15 05:24:58;;;;;;;;;;;13.60;99.90;;;;;;5056261;28;20031;-79
2022/06/15 05:27:24;;;;;;;;;;;13.60;99.90;;;;;;5030044;28;19917;-77
2022/06/15 05:29:49;;;;;;;;;;;13.70;99.90;;;;;;5033162;28;19917;-79
2022/06/15 05:32:15;;;;;;;;;;;13.70;99.90;;;;;;5033666;28;19925;-79
2022/06/15 05:34:41;;;;;;;;;;;13.80;99.90;;;;;;5016445;28;19917;-77
2022/06/15 05:37:06;;;;;;;;;;;13.80;99.90;;;;;;5066404;28;19925;-77
2022/06/15 05:39:32;;;;;;;;;;;13.80;99.90;;;;;;5027049;28;19924;-78
2022/06/15 05:41:58;;;;;;;;;;;13.90;99.90;;;;;;5034359;28;19920;-77
2022/06/15 05:44:38;;;;;;;;;;;13.90;99.90;;;;;;5034983;28;19917;-77
2022/06/15 05:47:05;;;;;;;;;;;13.90;99.90;;;;;;5023187;28;19920;-77
2022/06/15 05:49:30;;;;;;;;;;;14.00;99.90;;;;;;5019202;28;19925;-78
2022/06/15 05:51:57;;;;;;;;;;;14.20;99.90;;;;;;5042990;28;19927;-78
2022/06/15 05:54:23;;;;;;;;;;;14.30;99.90;;;;;;5036047;28;19921;-77
2022/06/15 05:56:48;;;;;;;;;;;14.50;99.90;;;;;;5019504;28;20405;-78
2022/06/15 05:59:14;;;;;;;;;;;14.60;99.90;;;;;;5035497;28;19917;-79
2022/06/15 06:01:40;;;;;;;;;;;14.80;99.90;;;;;;5019716;28;20001;-77
2022/06/15 06:04:11;;;;;;;;;;;15.00;99.90;;;;;;5054794;28;19924;-78
2022/06/15 06:06:36;;;;;;;;;;;15.10;99.90;;;;;;5023444;28;19924;-77
2022/06/15 06:09:02;;;;;;;;;;;15.20;99.90;;;;;;5006056;28;19917;-77
2022/06/15 06:11:28;;;;;;;;;;;15.30;99.90;;;;;;5068984;28;19924;-78
2022/06/15 06:13:53;;;;;;;;;;;15.40;99.90;;;;;;5035146;28;19938;-77
2022/06/15 06:16:20;;;;;;;;;;;15.50;99.90;;;;;;5021890;28;20302;-79
2022/06/15 06:18:45;;;;;;;;;;;15.60;99.90;;;;;;5018124;28;19921;-77
2022/06/15 06:21:11;;;;;;;;;;;15.70;99.90;;;;;;5034600;28;20011;-78
2022/06/15 06:23:37;;;;;;;;;;;15.90;99.90;;;;;;5049383;28;19939;-78
2022/06/15 06:26:03;;;;;;;;;;;16.00;99.90;;;;;;5035113;28;19918;-78
2022/06/15 06:28:30;;;;;;;;;;;16.10;99.90;;;;;;5034590;28;20274;-79
2022/06/15 06:31:00;;;;;;;;;;;16.30;99.90;;;;;;5018818;28;20370;-78
2022/06/15 06:33:27;;;;;;;;;;;16.40;99.90;;;;;;5021140;28;19916;-77
2022/06/15 06:35:57;;;;;;;;;;;16.60;99.90;;;;;;5018074;28;20370;-78
2022/06/15 06:38:24;;;;;;;;;;;16.80;99.90;;;;;;5034929;28;20019;-79
2022/06/15 06:40:50;;;;;;;;;;;17.00;99.90;;;;;;5034511;28;19920;-77
2022/06/15 06:43:16;;;;;;;;;;;17.20;99.90;;;;;;5000100;28;20362;-79
2022/06/15 06:45:42;;;;;;;;;;;17.40;99.90;;;;;;5049116;28;19917;-77
2022/06/15 06:48:08;;;;;;;;;;;17.50;99.90;;;;;;5014907;28;19925;-78
2022/06/15 06:50:35;;;;;;;;;;;17.80;99.90;;;;;;5052150;28;20063;-79
2022/06/15 06:53:01;;;;;;;;;;;18.00;99.90;;;;;;5050889;28;20385;-78
2022/06/15 06:55:28;;;;;;;;;;;18.10;99.90;;;;;;5034513;28;20003;-77
2022/06/15 06:57:57;;;;;;;;;;;18.20;99.90;;;;;;5016810;28;20266;-78
2022/06/15 07:00:23;;;;;;;;;;;18.30;99.90;;;;;;5047402;28;19924;-79
2022/06/15 07:02:49;;;;;;;;;;;18.30;99.90;;;;;;5048408;28;19917;-77
2022/06/15 07:05:14;;;;;;;;;;;18.40;99.90;;;;;;5053059;28;19917;-78
2022/06/15 07:07:40;;;;;;;;;;;18.50;99.90;;;;;;5025019;28;20032;-77
2022/06/15 07:10:06;;;;;;;;;;;18.60;99.90;;;;;;5028082;28;19930;-78
2022/06/15 07:12:32;;;;;;;;;;;18.60;99.90;;;;;;5048227;28;19925;-79
2022/06/15 07:14:58;;;;;;;;;;;18.80;99.90;;;;;;5029155;28;19927;-77
2022/06/15 07:17:23;;;;;;;;;;;18.70;99.90;;;;;;5048608;28;19917;-78
2022/06/15 07:19:49;;;;;;;;;;;18.80;99.90;;;;;;5060430;28;19920;-79
2022/06/15 07:22:15;;;;;;;;;;;18.70;99.90;;;;;;5030273;28;19956;-76
2022/06/15 07:24:40;;;;;;;;;;;18.70;99.90;;;;;;4998462;28;20393;-77
2022/06/15 07:27:06;;;;;;;;;;;18.70;99.90;;;;;;5027961;28;20024;-77
2022/06/15 07:29:31;;;;;;;;;;;18.80;99.90;;;;;;5047688;28;19917;-78
2022/06/15 07:31:57;;;;;;;;;;;18.80;99.90;;;;;;5034225;28;19922;-78
2022/06/15 07:34:23;;;;;;;;;;;18.80;99.90;;;;;;5014842;28;19924;-76
2022/06/15 07:36:49;;;;;;;;;;;18.70;99.90;;;;;;5033441;28;20313;-77
2022/06/15 07:39:16;;;;;;;;;;;18.70;99.90;;;;;;5034964;28;19917;-77
2022/06/15 07:41:42;;;;;;;;;;;18.70;99.90;;;;;;5022235;28;20289;-78
2022/06/15 07:44:08;;;;;;;;;;;18.70;99.90;;;;;;5058202;28;19921;-78
2022/06/15 07:46:33;;;;;;;;;;;18.70;99.90;;;;;;5058093;28;19917;-78
2022/06/15 07:51:45;;;;;;;;;;;18.80;99.90;;;;;;5052378;28;20258;-79
2022/06/15 07:54:13;;;;;;;;;;;18.70;99.90;;;;;;5017598;28;19921;-77
2022/06/15 07:56:39;;;;;;;;;;;18.50;99.90;;;;;;5000915;28;20008;-78
2022/06/15 07:59:05;;;;;;;;;;;18.50;99.90;;;;;;5047180;28;19928;-77
2022/06/15 08:01:31;;;;;;;;;;;18.50;99.90;;;;;;5030045;28;19928;-78
2022/06/15 08:03:56;;;;;;;;;;;18.50;99.90;;;;;;5040896;28;20007;-77
2022/06/15 08:06:22;;;;;;;;;;;18.50;99.90;;;;;;5034113;28;19917;-76
2022/06/15 08:08:48;;;;;;;;;;;18.50;99.90;;;;;;5057866;28;19988;-77
2022/06/15 08:11:14;;;;;;;;;;;18.70;99.90;;;;;;5032312;28;19997;-76
2022/06/15 08:13:40;;;;;;;;;;;19.10;99.90;;;;;;5034054;28;19917;-77
2022/06/15 08:16:06;;;;;;;;;;;19.30;99.90;;;;;;5019515;28;20319;-76
2022/06/15 08:18:34;;;;;;;;;;;19.50;99.90;;;;;;5032669;28;19916;-78
2022/06/15 08:21:04;;;;;;;;;;;19.70;99.90;;;;;;5016366;28;19971;-78
2022/06/15 08:23:31;;;;;;;;;;;19.70;99.90;;;;;;5033225;28;19923;-78
2022/06/15 08:25:59;;;;;;;;;;;19.50;99.90;;;;;;5032493;28;19921;-79
2022/06/15 08:28:26;;;;;;;;;;;19.40;99.90;;;;;;5029999;28;19924;-77
2022/06/15 08:30:52;;;;;;;;;;;19.50;99.90;;;;;;5015369;28;19921;-77
2022/06/15 08:33:18;;;;;;;;;;;19.60;99.90;;;;;;5046313;28;19937;-80
2022/06/15 08:35:44;;;;;;;;;;;19.70;99.90;;;;;;5067623;28;19939;-78
2022/06/15 08:38:12;;;;;;;;;;;19.80;99.90;;;;;;5018393;28;20422;-79
2022/06/15 08:40:47;;;;;;;;;;;19.80;99.90;;;;;;5014252;28;20024;-79
2022/06/15 08:43:42;;;;;;;;;;;19.90;99.90;;;;;;5062818;28;19999;-79
2022/06/15 08:46:08;;;;;;;;;;;20.00;99.90;;;;;;5012370;28;19974;-78
2022/06/15 08:48:52;;;;;;;;;;;20.10;99.90;;;;;;5046838;28;19917;-77
2022/06/15 08:51:44;;;;;;;;;;;20.20;99.90;;;;;;5034563;28;19920;-78
2022/06/15 08:54:29;;;;;;;;;;;20.30;99.90;;;;;;5032783;28;20003;-77
2022/06/15 08:57:05;;;;;;;;;;;20.60;99.90;;;;;;5011455;28;20409;-77
2022/06/15 08:59:48;;;;;;;;;;;20.80;99.90;;;;;;5037684;28;19939;-77
2022/06/15 09:02:24;;;;;;;;;;;20.90;99.90;;;;;;5033614;28;19916;-77
2022/06/15 09:05:01;;;;;;;;;;;21.10;99.90;;;;;;5016773;28;20020;-77
2022/06/15 09:07:40;;;;;;;;;;;21.40;99.90;;;;;;5033835;28;19917;-77
2022/06/15 09:10:24;;;;;;;;;;;21.40;99.90;;;;;;5000986;28;19920;-79
2022/06/15 09:13:23;;;;;;;;;;;21.20;99.90;;;;;;5019658;28;20445;-79
2022/06/15 09:16:01;;;;;;;;;;;21.10;99.90;;;;;;4966960;28;19917;-77
2022/06/15 09:18:29;;;;;;;;;;;21.00;99.90;;;;;;5053772;28;20000;-78
2022/06/15 09:20:55;;;;;;;;;;;20.70;99.90;;;;;;5025288;28;19917;-78
2022/06/15 09:23:28;;;;;;;;;;;20.60;99.90;;;;;;5050218;28;19966;-78
2022/06/15 09:26:00;;;;;;;;;;;20.40;99.90;;;;;;5050383;28;20333;-77
2022/06/15 09:28:30;;;;;;;;;;;20.30;99.90;;;;;;5053643;28;19962;-78
2022/06/15 09:30:59;;;;;;;;;;;20.00;99.90;;;;;;5054624;28;19916;-78
2022/06/15 09:33:32;;;;;;;;;;;19.90;99.90;;;;;;5031703;28;19929;-78
2022/06/15 09:36:03;;;;;;;;;;;19.80;99.90;;;;;;5019138;28;19928;-78
2022/06/15 09:38:31;;;;;;;;;;;20.10;99.90;;;;;;5034884;28;19917;-79
2022/06/15 09:40:59;;;;;;;;;;;20.60;99.90;;;;;;5070149;28;19917;-78
2022/06/15 09:43:25;;;;;;;;;;;21.10;99.90;;;;;;5055641;28;19925;-78
2022/06/15 09:46:01;;;;;;;;;;;21.40;99.90;;;;;;5061439;28;20012;-79
2022/06/15 09:48:36;;;;;;;;;;;21.40;99.90;;;;;;5034163;28;19916;-79
2022/06/15 09:51:19;;;;;;;;;;;21.40;99.90;;;;;;5044932;28;20075;-78
2022/06/15 09:54:10;;;;;;;;;;;21.20;99.90;;;;;;5016511;28;19963;-78
2022/06/15 09:56:35;;;;;;;;;;;21.30;99.90;;;;;;5061874;28;19932;-78
2022/06/15 09:59:09;;;;;;;;;;;21.30;99.90;;;;;;5049173;28;19916;-77
2022/06/15 10:01:41;;;;;;;;;;;21.30;99.90;;;;;;5033129;28;19921;-77
2022/06/15 10:04:12;;;;;;;;;;;21.30;99.90;;;;;;5048606;28;19917;-80
2022/06/15 10:06:38;;;;;;;;;;;21.50;99.90;;;;;;5049374;28;19920;-77
2022/06/15 10:09:06;;;;;;;;;;;21.70;99.90;;;;;;5060769;28;19923;-76
2022/06/15 10:11:44;;;;;;;;;;;22.00;99.90;;;;;;5033952;28;19924;-77
2022/06/15 10:14:18;;;;;;;;;;;22.20;99.90;;;;;;5049146;28;19927;-77
2022/06/15 10:16:50;;;;;;;;;;;22.40;99.90;;;;;;5049468;28;20401;-78
2022/06/15 10:19:16;;;;;;;;;;;22.40;99.90;;;;;;5048505;28;19924;-78
2022/06/15 10:21:42;;;;;;;;;;;22.40;99.90;;;;;;5051763;28;19917;-77
2022/06/15 10:24:19;;;;;;;;;;;22.40;99.90;;;;;;5018838;28;20133;-78
2022/06/15 10:26:46;;;;;;;;;;;22.30;99.90;;;;;;5029990;28;20011;-77
2022/06/15 10:29:15;;;;;;;;;;;22.10;99.90;;;;;;5008724;28;19924;-77
2022/06/15 10:32:01;;;;;;;;;;;22.30;99.70;;;;;;5033371;28;20016;-80
2022/06/15 10:34:31;;;;;;;;;;;22.40;98.30;;;;;;5012391;28;19936;-79
2022/06/15 10:36:58;;;;;;;;;;;22.20;98.80;;;;;;5031603;28;19921;-78
2022/06/15 10:39:25;;;;;;;;;;;22.10;99.50;;;;;;4999463;28;19917;-77
2022/06/15 10:41:51;;;;;;;;;;;22.00;99.90;;;;;;5001829;28;19917;-81
2022/06/15 10:44:35;;;;;;;;;;;21.70;99.10;;;;;;5064912;28;19948;-78
2022/06/15 10:47:01;;;;;;;;;;;21.40;99.90;;;;;;5022012;28;19970;-77
2022/06/15 10:49:29;;;;;;;;;;;21.20;99.90;;;;;;5020715;28;19917;-78
2022/06/15 10:51:55;;;;;;;;;;;21.00;99.90;;;;;;5029139;28;19924;-77
2022/06/15 10:54:24;;;;;;;;;;;20.90;98.60;;;;;;5034951;28;20266;-77
2022/06/15 11:02:33;;;;;;;;;;;21.10;99.90;;;;;;5026982;28;19920;-77
2022/06/15 11:05:06;;;;;;;;;;;21.10;99.90;;;;;;5027992;28;20003;-77
2022/06/15 11:07:33;;;;;;;;;;;21.10;99.90;;;;;;5016457;28;19917;-78
2022/06/15 11:10:11;;;;;;;;;;;20.90;99.90;;;;;;5035169;28;19924;-79
2022/06/15 11:12:42;;;;;;;;;;;20.90;99.90;;;;;;5034368;28;20274;-78
2022/06/15 11:18:01;;;;;;;;;;;21.10;99.90;;;;;;5018642;28;19920;-79
2022/06/15 11:18:37;;;;;;;;;;;21.30;99.90;;;;;;5043281;28;19971;-78
2022/06/15 11:21:15;;;;;;;;;;;21.70;99.90;;;;;;5016056;28;19923;-78
2022/06/15 11:24:10;;;;;;;;;;;22.00;99.90;;;;;;5016348;28;20338;-78
2022/06/15 11:26:57;;;;;;;;;;;22.10;99.90;;;;;;5004738;28;19976;-78
2022/06/15 11:29:41;;;;;;;;;;;22.30;99.90;;;;;;5033094;28;19917;-80
2022/06/15 11:32:14;;;;;;;;;;;22.40;99.90;;;;;;5023219;28;19921;-78
2022/06/15 11:34:43;;;;;;;;;;;22.30;98.70;;;;;;5015130;28;19960;-79
2022/06/15 11:37:15;;;;;;;;;;;22.20;99.90;;;;;;5017163;28;19927;-79
2022/06/15 11:39:43;;;;;;;;;;;22.20;99.90;;;;;;5031703;28;19923;-78
2022/06/15 11:42:10;;;;;;;;;;;22.30;98.10;;;;;;5022799;28;20015;-79
2022/06/15 11:44:37;;;;;;;;;;;22.30;98.40;;;;;;5014147;28;20381;-79
2022/06/15 11:47:21;;;;;;;;;;;22.50;99.90;;;;;;5034704;28;19924;-79
2022/06/15 11:50:07;;;;;;;;;;;22.90;99.90;;;;;;5014964;28;20301;-79
2022/06/15 11:52:35;;;;;;;;;;;23.20;99.40;;;;;;5027908;28;19928;-79
2022/06/15 11:55:14;;;;;;;;;;;23.60;98.70;;;;;;5020052;28;20397;-78
2022/06/15 11:57:43;;;;;;;;;;;23.80;93.20;;;;;;5021133;28;20366;-77
2022/06/15 12:00:15;;;;;;;;;;;24.10;96.80;;;;;;5008233;28;19923;-78
2022/06/15 12:02:56;;;;;;;;;;;24.40;92.90;;;;;;5023316;28;19917;-79
2022/06/15 12:05:34;;;;;;;;;;;24.60;90.60;;;;;;5012630;28;19917;-79
2022/06/15 12:08:10;;;;;;;;;;;24.50;91.00;;;;;;5052805;28;19958;-79
2022/06/15 12:10:49;;;;;;;;;;;24.10;90.00;;;;;;5024585;28;19940;-77
2022/06/15 12:13:23;;;;;;;;;;;23.70;89.90;;;;;;5016077;28;19921;-77
2022/06/15 12:15:52;;;;;;;;;;;23.30;88.50;;;;;;5023828;28;19972;-79
2022/06/15 12:18:35;;;;;;;;;;;22.90;90.70;;;;;;5058997;28;20354;-78
2022/06/15 12:21:22;;;;;;;;;;;23.20;94.30;;;;;;5045572;28;20370;-79
2022/06/15 12:24:07;;;;;;;;;;;22.60;88.10;;;;;;5034538;28;19943;-78
2022/06/15 12:26:39;;;;;;;;;;;22.40;87.50;;;;;;5016440;28;20359;-78
2022/06/15 12:29:11;;;;;;;;;;;22.20;91.00;;;;;;5047165;28;19967;-79
2022/06/15 12:31:46;;;;;;;;;;;22.00;91.80;;;;;;5064820;28;19927;-80
2022/06/15 12:34:15;;;;;;;;;;;22.20;91.20;;;;;;5020678;28;19924;-78
2022/06/15 12:36:47;;;;;;;;;;;22.50;91.80;;;;;;5046902;28;20337;-78
2022/06/15 12:39:29;;;;;;;;;;;23.10;93.10;;;;;;5019249;28;20347;-78
2022/06/15 12:42:11;;;;;;;;;;;23.80;91.00;;;;;;5001198;28;19921;-79
2022/06/15 12:44:42;;;;;;;;;;;24.20;85.00;;;;;;5047914;28;19917;-78
2022/06/15 12:47:13;;;;;;;;;;;23.80;82.80;;;;;;5051720;28;20331;-79
2022/06/15 12:49:50;;;;;;;;;;;23.60;81.60;;;;;;5027898;28;19967;-78
2022/06/15 12:52:25;;;;;;;;;;;23.50;87.90;;;;;;5035680;28;19921;-78
2022/06/15 12:54:50;;;;;;;;;;;23.20;82.60;;;;;;5035932;28;20377;-77
2022/06/15 12:57:22;;;;;;;;;;;23.00;88.10;;;;;;5026524;28;19924;-77
2022/06/15 13:00:06;;;;;;;;;;;23.10;85.80;;;;;;5050571;28;19917;-77
2022/06/15 13:02:36;;;;;;;;;;;23.60;87.90;;;;;;5030828;28;20345;-79
2022/06/15 13:05:09;;;;;;;;;;;24.30;87.90;;;;;;5050717;28;20451;-78
2022/06/15 13:07:41;;;;;;;;;;;24.60;77.60;;;;;;5031078;28;19928;-79
2022/06/15 13:10:07;;;;;;;;;;;24.70;76.40;;;;;;5037406;28;20001;-78
2022/06/15 13:12:54;;;;;;;;;;;24.90;75.80;;;;;;5024657;28;19979;-78
2022/06/15 13:15:29;;;;;;;;;;;25.10;72.40;;;;;;5017436;28;19920;-79
2022/06/15 13:18:13;;;;;;;;;;;25.20;75.10;;;;;;5049087;28;19940;-79
2022/06/15 13:20:53;;;;;;;;;;;25.20;77.40;;;;;;5038661;28;20044;-79
2022/06/15 13:23:39;;;;;;;;;;;25.00;75.10;;;;;;5045360;28;19920;-78
2022/06/15 13:26:09;;;;;;;;;;;24.70;84.20;;;;;;5035893;28;19920;-76
2022/06/15 13:28:40;;;;;;;;;;;24.60;88.40;;;;;;5022688;28;19969;-78
2022/06/15 13:31:07;;;;;;;;;;;24.50;76.70;;;;;;5025812;28;20302;-77
2022/06/15 13:33:45;;;;;;;;;;;24.50;70.30;;;;;;5020978;28;20353;-78
2022/06/15 13:36:11;;;;;;;;;;;24.60;77.10;;;;;;5036615;28;19923;-78
2022/06/15 13:38:37;;;;;;;;;;;24.80;70.50;;;;;;5018289;28;19917;-78
2022/06/15 13:41:07;;;;;;;;;;;25.00;71.70;;;;;;5054860;28;19916;-79
2022/06/15 13:43:51;;;;;;;;;;;25.10;76.10;;;;;;5035242;28;19916;-78
2022/06/15 13:46:26;;;;;;;;;;;24.90;69.90;;;;;;5020127;28;19917;-80
2022/06/15 13:49:01;;;;;;;;;;;24.90;72.80;;;;;;5029061;28;19924;-79
2022/06/15 13:51:41;;;;;;;;;;;25.10;72.60;;;;;;5034264;28;19917;-80
2022/06/15 13:54:13;;;;;;;;;;;25.10;70.80;;;;;;5048014;28;19928;-78
2022/06/15 13:56:57;;;;;;;;;;;25.10;70.00;;;;;;5029910;28;19924;-78
2022/06/15 13:59:42;;;;;;;;;;;25.30;69.80;;;;;;5061526;28;20000;-78
2022/06/15 14:02:08;;;;;;;;;;;25.50;65.40;;;;;;5036455;28;19917;-79
2022/06/15 14:04:53;;;;;;;;;;;25.70;62.00;;;;;;5017555;28;19963;-78
2022/06/15 14:07:37;;;;;;;;;;;25.80;63.70;;;;;;5025473;28;19920;-79
2022/06/15 14:10:12;;;;;;;;;;;25.70;62.30;;;;;;5049563;28;20363;-79
2022/06/15 14:12:44;;;;;;;;;;;25.80;61.70;;;;;;5045678;28;19924;-78
2022/06/15 14:15:22;;;;;;;;;;;25.90;64.30;;;;;;5054174;28;19966;-78
2022/06/15 14:17:59;;;;;;;;;;;26.30;70.70;;;;;;5021648;28;19944;-80
2022/06/15 14:20:31;;;;;;;;;;;26.30;66.70;;;;;;5054041;28;19995;-78
2022/06/15 14:22:58;;;;;;;;;;;26.30;62.00;;;;;;5055441;28;19939;-79
2022/06/15 14:25:24;;;;;;;;;;;26.40;58.30;;;;;;5027868;28;19917;-79
2022/06/15 14:27:55;;;;;;;;;;;26.90;61.10;;;;;;5049457;28;19921;-80
2022/06/15 14:30:26;;;;;;;;;;;27.00;60.40;;;;;;5035837;28;19916;-79
2022/06/15 14:32:56;;;;;;;;;;;27.00;56.50;;;;;;5034789;28;20019;-78
2022/06/15 14:35:22;;;;;;;;;;;27.00;61.00;;;;;;5035708;28;19921;-79
2022/06/15 14:37:59;;;;;;;;;;;27.30;59.80;;;;;;5003338;28;19979;-79
2022/06/15 14:40:25;;;;;;;;;;;27.70;58.10;;;;;;5009778;28;19929;-79
2022/06/15 14:42:57;;;;;;;;;;;27.80;61.30;;;;;;5053363;28;19916;-76
2022/06/15 14:45:25;;;;;;;;;;;27.90;57.00;;;;;;5018313;28;20278;-79
2022/06/15 14:47:52;;;;;;;;;;;27.90;57.70;;;;;;5014392;28;19924;-79